createdAt,value
2018-02-19T00:01:16.331Z,5.28
2018-02-19T00:03:44.989Z,5.65
2018-02-19T00:06:12.576Z,5.55
2018-02-19T00:08:40.942Z,5.53
2018-02-19T00:11:08.551Z,5.45
2018-02-19T00:13:36.129Z,5.10
2018-02-19T00:16:03.702Z,5.55
2018-02-19T00:18:31.314Z,4.90
2018-02-19T00:20:59.637Z,5.53
2018-02-19T00:23:27.271Z,5.47
2018-02-19T00:25:55.604Z,5.68
2018-02-19T00:28:23.235Z,5.97
2018-02-19T00:30:50.839Z,5.68
2018-02-19T00:33:18.412Z,5.35
2018-02-19T00:35:46.028Z,5.32
2018-02-19T00:38:14.627Z,5.50
2018-02-19T00:40:42.255Z,5.95
2018-02-19T00:43:09.913Z,5.25
2018-02-19T00:45:37.808Z,5.87
2018-02-19T00:48:06.165Z,5.20
2018-02-19T00:50:33.745Z,5.15
2018-02-19T00:53:01.355Z,5.20
2018-02-19T00:55:28.948Z,5.62
2018-02-19T00:57:56.565Z,5.82
2018-02-19T01:00:24.913Z,5.35
2018-02-19T01:02:52.487Z,5.05
2018-02-19T01:05:20.094Z,5.37
2018-02-19T01:07:47.691Z,5.20
2018-02-19T01:10:15.259Z,4.95
2018-02-19T01:12:44.067Z,4.55
2018-02-19T01:15:11.695Z,4.93
2018-02-19T01:17:39.307Z,4.82
2018-02-19T01:20:06.897Z,4.87
2018-02-19T01:22:35.295Z,5.47
2018-02-19T01:25:02.879Z,5.28
2018-02-19T01:27:30.444Z,5.40
2018-02-19T01:29:58.046Z,5.07
2018-02-19T01:32:25.657Z,4.60
2018-02-19T01:34:53.251Z,4.80
2018-02-19T01:37:20.856Z,5.32
2018-02-19T01:39:48.470Z,4.70
2018-02-19T01:42:16.086Z,4.78
2018-02-19T01:44:43.688Z,5.07
2018-02-19T01:47:11.302Z,5.43
2018-02-19T01:49:39.027Z,5.03
2018-02-19T01:52:06.609Z,4.95
2018-02-19T01:54:34.189Z,5.80
2018-02-19T01:57:01.846Z,5.32
2018-02-19T01:59:29.455Z,4.62
2018-02-19T02:01:57.072Z,5.10
2018-02-19T02:04:24.650Z,4.87
2018-02-19T02:06:52.284Z,4.53
2018-02-19T02:09:19.910Z,5.10
2018-02-19T02:11:47.484Z,5.47
2018-02-19T02:14:15.089Z,5.43
2018-02-19T02:16:42.677Z,4.30
2018-02-19T02:19:10.287Z,5.07
2018-02-19T02:21:37.915Z,5.55
2018-02-19T02:24:05.497Z,4.57
2018-02-19T02:26:33.082Z,4.40
2018-02-19T02:29:01.437Z,4.53
2018-02-19T02:31:29.041Z,5.05
2018-02-19T02:33:57.420Z,4.50
2018-02-19T02:36:25.003Z,4.40
2018-02-19T02:38:53.510Z,4.40
2018-02-19T02:41:21.101Z,4.65
2018-02-19T02:43:49.484Z,4.50
2018-02-19T02:46:17.126Z,5.30
2018-02-19T02:48:44.752Z,5.40
2018-02-19T02:51:13.113Z,4.63
2018-02-19T02:53:40.719Z,4.68
2018-02-19T02:56:08.307Z,5.07
2018-02-19T02:58:35.895Z,4.80
2018-02-19T03:01:03.504Z,4.60
2018-02-19T03:03:31.116Z,5.00
2018-02-19T03:05:58.707Z,5.55
2018-02-19T03:08:26.343Z,4.70
2018-02-19T03:10:53.929Z,4.37
2018-02-19T03:13:21.584Z,4.50
2018-02-19T03:15:49.381Z,4.82
2018-02-19T03:18:17.028Z,5.10
2018-02-19T03:20:44.645Z,4.72
2018-02-19T03:23:12.227Z,4.55
2018-02-19T03:25:39.819Z,4.40
2018-02-19T03:28:07.446Z,4.90
2018-02-19T03:30:35.093Z,4.47
2018-02-19T03:33:03.413Z,4.60
2018-02-19T03:35:31.002Z,5.00
2018-02-19T03:37:58.613Z,4.45
2018-02-19T03:40:26.960Z,5.10
2018-02-19T03:42:54.549Z,4.80
2018-02-19T03:45:22.915Z,5.18
2018-02-19T03:47:50.501Z,4.87
2018-02-19T03:50:18.104Z,4.62
2018-02-19T03:52:45.679Z,4.85
2018-02-19T03:55:13.277Z,4.68
2018-02-19T03:57:40.896Z,4.80
2018-02-19T04:00:08.514Z,4.65
2018-02-19T04:02:36.921Z,4.77
2018-02-19T04:05:05.309Z,4.72
2018-02-19T04:07:32.901Z,4.60
2018-02-19T04:10:00.500Z,4.60
2018-02-19T04:12:28.072Z,4.70
2018-02-19T04:14:55.631Z,4.70
2018-02-19T04:17:23.234Z,5.00
2018-02-19T04:19:50.848Z,4.47
2018-02-19T04:22:18.426Z,4.60
2018-02-19T04:24:46.034Z,5.12
2018-02-19T04:27:13.692Z,5.18
2018-02-19T04:29:42.056Z,4.75
2018-02-19T04:32:09.696Z,4.70
2018-02-19T04:34:37.384Z,4.70
2018-02-19T04:37:04.957Z,4.97
2018-02-19T04:39:33.668Z,5.03
2018-02-19T04:42:02.300Z,5.35
2018-02-19T04:44:45.783Z,5.07
2018-02-19T04:47:13.387Z,5.68
2018-02-19T04:49:41.152Z,5.10
2018-02-19T04:52:08.784Z,5.10
2018-02-19T04:54:36.533Z,5.32
2018-02-19T04:57:04.918Z,5.18
2018-02-19T04:59:33.437Z,5.70
2018-02-19T05:02:01.071Z,5.78
2018-02-19T05:04:28.682Z,5.00
2018-02-19T05:06:56.276Z,5.53
2018-02-19T05:09:23.858Z,4.93
2018-02-19T05:11:51.462Z,4.87
2018-02-19T05:14:19.048Z,5.45
2018-02-19T05:16:46.680Z,5.00
2018-02-19T05:19:15.049Z,5.28
2018-02-19T05:21:50.065Z,6.28
2018-02-19T05:24:17.773Z,5.85
2018-02-19T05:26:46.133Z,5.20
2018-02-19T05:29:14.510Z,5.15
2018-02-19T05:31:42.867Z,5.45
2018-02-19T05:34:10.496Z,5.18
2018-02-19T05:36:38.107Z,5.50
2018-02-19T05:39:05.750Z,5.57
2018-02-19T05:41:33.377Z,6.55
2018-02-19T05:44:01.716Z,5.72
2018-02-19T05:46:29.316Z,6.00
2018-02-19T05:48:56.884Z,5.80
2018-02-19T05:51:25.255Z,6.20
2018-02-19T05:53:53.243Z,5.62
2018-02-19T05:56:21.621Z,6.50
2018-02-19T05:58:49.223Z,6.20
2018-02-19T06:01:17.205Z,6.30
2018-02-19T06:03:44.792Z,5.82
2018-02-19T06:06:12.384Z,6.10
2018-02-19T06:08:39.975Z,6.70
2018-02-19T06:11:07.585Z,6.85
2018-02-19T06:13:35.189Z,6.47
2018-02-19T06:16:02.797Z,7.30
2018-02-19T06:18:30.400Z,6.82
2018-02-19T06:20:58.102Z,6.93
2018-02-19T06:23:26.638Z,6.10
2018-02-19T06:25:54.211Z,7.15
2018-02-19T06:28:21.826Z,6.95
2018-02-19T06:30:49.446Z,6.30
2018-02-19T06:33:17.081Z,8.50
2018-02-19T06:35:44.657Z,8.02
2018-02-19T06:38:12.263Z,7.30
2018-02-19T06:40:39.880Z,6.50
2018-02-19T06:43:07.481Z,7.82
2018-02-19T06:45:35.038Z,6.43
2018-02-19T06:48:02.633Z,6.82
2018-02-19T06:50:30.974Z,7.95
2018-02-19T06:52:58.580Z,7.05
2018-02-19T06:55:26.195Z,7.32
2018-02-19T06:57:54.380Z,9.20
2018-02-19T07:00:21.970Z,8.38
2018-02-19T07:02:49.571Z,6.15
2018-02-19T07:05:17.924Z,6.10
2018-02-19T07:07:45.534Z,6.67
2018-02-19T07:10:13.438Z,8.43
2018-02-19T07:12:41.028Z,6.95
2018-02-19T07:15:08.612Z,7.77
2018-02-19T07:17:36.998Z,7.93
2018-02-19T07:20:05.336Z,7.15
2018-02-19T07:22:32.974Z,6.85
2018-02-19T07:25:05.553Z,7.78
2018-02-19T07:27:33.166Z,7.75
2018-02-19T07:30:00.765Z,8.00
2018-02-19T07:32:28.386Z,9.02
2018-02-19T07:34:56.044Z,7.40
2018-02-19T07:37:23.644Z,7.20
2018-02-19T07:39:52.075Z,7.73
2018-02-19T07:42:19.716Z,7.93
2018-02-19T07:44:47.908Z,7.07
2018-02-19T07:47:15.530Z,7.57
2018-02-19T07:49:43.121Z,8.18
2018-02-19T07:52:10.746Z,6.93
2018-02-19T07:54:38.332Z,8.97
2018-02-19T07:57:05.895Z,7.90
2018-02-19T07:59:33.921Z,7.22
2018-02-19T08:02:01.518Z,9.60
2018-02-19T08:04:29.079Z,7.10
2018-02-19T08:06:56.712Z,8.68
2018-02-19T08:09:24.329Z,7.55
2018-02-19T08:11:52.702Z,7.22
2018-02-19T08:14:20.464Z,7.62
2018-02-19T08:16:48.089Z,7.60
2018-02-19T08:19:15.688Z,8.10
2018-02-19T08:21:43.318Z,6.93
2018-02-19T08:24:10.961Z,7.85
2018-02-19T08:26:39.323Z,9.98
2018-02-19T08:29:06.932Z,7.55
2018-02-19T08:31:34.566Z,7.20
2018-02-19T08:34:02.163Z,7.82
2018-02-19T08:36:29.724Z,8.65
2018-02-19T08:38:58.134Z,8.35
2018-02-19T08:41:25.777Z,7.70
2018-02-19T08:43:54.103Z,8.43
2018-02-19T08:46:21.760Z,7.62
2018-02-19T08:48:49.365Z,10.57
2018-02-19T08:51:16.948Z,9.68
2018-02-19T08:53:45.318Z,8.45
2018-02-19T08:56:13.645Z,9.85
2018-02-19T08:58:41.558Z,7.97
2018-02-19T09:01:09.164Z,9.13
2018-02-19T09:03:36.787Z,9.32
2018-02-19T09:06:04.388Z,8.75
2018-02-19T09:08:32.771Z,7.80
2018-02-19T09:11:01.108Z,8.57
2018-02-19T09:13:28.706Z,10.27
2018-02-19T09:15:57.081Z,10.15
2018-02-19T09:18:25.471Z,7.07
2018-02-19T09:20:53.841Z,8.88
2018-02-19T09:23:21.471Z,10.02
2018-02-19T09:25:49.028Z,8.80
2018-02-19T09:28:16.614Z,10.48
2018-02-19T09:30:44.562Z,9.55
2018-02-19T09:33:12.233Z,8.32
2018-02-19T09:35:39.817Z,8.40
2018-02-19T09:38:07.448Z,8.93
2018-02-19T09:40:35.046Z,8.80
2018-02-19T09:43:02.608Z,9.25
2018-02-19T09:45:30.207Z,9.75
2018-02-19T09:47:58.539Z,9.80
2018-02-19T09:50:26.156Z,8.60
2018-02-19T09:52:54.506Z,8.43
2018-02-19T09:55:22.071Z,8.07
2018-02-19T09:57:49.666Z,8.18
2018-02-19T10:00:17.244Z,9.93
2018-02-19T10:02:45.623Z,8.25
2018-02-19T10:05:13.977Z,9.93
2018-02-19T10:07:41.872Z,8.53
2018-02-19T10:13:04.642Z,10.43
2018-02-19T10:15:32.962Z,9.20
2018-02-19T10:18:00.874Z,7.45
2018-02-19T10:20:28.442Z,7.78
2018-02-19T10:22:56.021Z,9.40
2018-02-19T10:25:23.612Z,8.88
2018-02-19T10:27:51.196Z,7.33
2018-02-19T10:30:18.812Z,8.30
2018-02-19T10:32:47.160Z,7.75
2018-02-19T10:35:14.760Z,8.93
2018-02-19T10:37:42.344Z,8.95
2018-02-19T10:40:10.700Z,8.07
2018-02-19T10:42:39.078Z,7.50
2018-02-19T10:45:06.636Z,7.80
2018-02-19T10:47:34.442Z,7.25
2018-02-19T10:50:02.793Z,8.20
2018-02-19T10:52:30.401Z,8.32
2018-02-19T10:54:57.990Z,8.95
2018-02-19T10:57:25.619Z,9.68
2018-02-19T10:59:53.934Z,7.05
2018-02-19T11:02:21.558Z,8.27
2018-02-19T11:04:49.937Z,8.90
2018-02-19T11:07:17.515Z,7.45
2018-02-19T11:09:45.310Z,7.72
2018-02-19T11:12:12.875Z,9.02
2018-02-19T11:14:40.473Z,7.57
2018-02-19T11:17:08.080Z,7.65
2018-02-19T11:19:35.694Z,9.43
2018-02-19T11:22:03.307Z,8.00
2018-02-19T11:24:31.685Z,8.82
2018-02-19T11:27:00.085Z,7.83
2018-02-19T11:29:27.682Z,8.10
2018-02-19T11:31:55.292Z,8.48
2018-02-19T11:34:22.860Z,8.75
2018-02-19T11:36:50.540Z,7.25
2018-02-19T11:39:18.878Z,9.10
2018-02-19T11:41:46.726Z,8.82
2018-02-19T11:44:14.363Z,8.07
2018-02-19T11:46:42.733Z,9.05
2018-02-19T11:49:10.308Z,8.60
2018-02-19T11:51:38.653Z,8.20
2018-02-19T11:54:06.269Z,8.63
2018-02-19T11:56:33.895Z,7.30
2018-02-19T11:59:01.531Z,8.23
2018-02-19T12:01:29.116Z,7.57
2018-02-19T12:03:56.700Z,7.15
2018-02-19T12:06:24.325Z,8.38
2018-02-19T12:08:51.901Z,7.93
2018-02-19T12:11:19.480Z,8.68
2018-02-19T12:13:47.064Z,8.50
2018-02-19T12:16:14.625Z,8.70
2018-02-19T12:18:42.228Z,8.25
2018-02-19T12:21:09.812Z,9.23
2018-02-19T12:23:37.376Z,10.45
2018-02-19T12:26:04.976Z,7.43
2018-02-19T12:28:32.581Z,8.80
2018-02-19T12:31:00.178Z,7.50
2018-02-19T12:33:27.780Z,9.13
2018-02-19T12:35:55.361Z,6.55
2018-02-19T12:38:24.032Z,7.10
2018-02-19T12:40:51.595Z,9.70
2018-02-19T12:43:19.207Z,7.18
2018-02-19T12:45:46.924Z,7.55
2018-02-19T12:48:14.509Z,8.25
2018-02-19T12:50:42.094Z,8.52
2018-02-19T12:53:10.450Z,8.53
2018-02-19T12:55:38.068Z,7.90
2018-02-19T12:58:05.647Z,7.30
2018-02-19T13:00:33.212Z,8.45
2018-02-19T13:03:00.804Z,9.32
2018-02-19T13:05:28.398Z,7.25
2018-02-19T13:07:56.764Z,7.70
2018-02-19T13:10:24.329Z,8.40
2018-02-19T13:12:52.002Z,7.95
2018-02-19T13:15:19.568Z,8.43
2018-02-19T13:17:47.950Z,7.87
2018-02-19T13:20:17.834Z,7.07
2018-02-19T13:22:46.195Z,6.93
2018-02-19T13:25:13.818Z,6.93
2018-02-19T13:27:42.211Z,7.85
2018-02-19T13:30:09.805Z,7.18
2018-02-19T13:32:37.422Z,6.78
2018-02-19T13:35:05.004Z,8.40
2018-02-19T13:37:33.340Z,7.53
2018-02-19T13:40:01.264Z,6.32
2018-02-19T13:42:28.849Z,8.07
2018-02-19T13:44:56.471Z,7.32
2018-02-19T13:47:24.105Z,7.37
2018-02-19T13:49:51.726Z,7.12
2018-02-19T13:52:20.075Z,7.55
2018-02-19T13:54:47.704Z,7.15
2018-02-19T13:57:15.326Z,7.30
2018-02-19T13:59:42.898Z,7.50
2018-02-19T14:02:10.478Z,7.37
2018-02-19T14:04:38.835Z,7.75
2018-02-19T14:07:06.402Z,8.20
2018-02-19T14:09:33.998Z,6.00
2018-02-19T14:12:01.574Z,7.03
2018-02-19T14:14:29.132Z,7.50
2018-02-19T14:16:56.820Z,6.65
2018-02-19T14:19:24.406Z,7.50
2018-02-19T14:21:51.997Z,8.52
2018-02-19T14:24:19.656Z,7.25
2018-02-19T14:26:47.220Z,6.55
2018-02-19T14:29:14.812Z,8.43
2018-02-19T14:31:43.194Z,7.30
2018-02-19T14:34:12.417Z,7.05
2018-02-19T14:36:39.977Z,7.72
2018-02-19T14:39:07.595Z,7.18
2018-02-19T14:41:36.042Z,8.25
2018-02-19T14:44:03.691Z,7.72
2018-02-19T14:46:31.263Z,7.68
2018-02-19T14:48:58.908Z,9.50
2018-02-19T14:51:26.539Z,8.30
2018-02-19T14:53:54.147Z,8.05
2018-02-19T14:56:22.507Z,7.30
2018-02-19T14:58:51.027Z,7.60
2018-02-19T15:01:19.569Z,6.57
2018-02-19T15:03:48.020Z,5.22
2018-02-19T15:06:15.610Z,7.72
2018-02-19T15:08:43.215Z,6.70
2018-02-19T15:11:10.810Z,5.87
2018-02-19T15:13:38.384Z,5.62
2018-02-19T15:16:06.378Z,5.47
2018-02-19T15:18:33.944Z,6.90
2018-02-19T15:21:01.561Z,5.28
2018-02-19T15:23:29.164Z,5.78
2018-02-19T15:25:56.749Z,5.70
2018-02-19T15:28:25.230Z,5.95
2018-02-19T15:30:53.684Z,5.93
2018-02-19T15:33:21.266Z,6.25
2018-02-19T15:35:48.925Z,5.93
2018-02-19T15:38:17.462Z,7.23
2018-02-19T15:40:45.048Z,6.28
2018-02-19T15:43:13.398Z,6.10
2018-02-19T15:45:41.021Z,6.62
2018-02-19T15:48:08.673Z,7.47
2018-02-19T15:50:36.271Z,8.05
2018-02-19T15:53:03.834Z,7.03
2018-02-19T15:55:31.506Z,5.90
2018-02-19T15:57:59.902Z,7.30
2018-02-19T16:00:28.260Z,6.72
2018-02-19T16:02:55.811Z,5.95
2018-02-19T16:05:23.486Z,6.23
2018-02-19T16:07:51.130Z,6.85
2018-02-19T16:10:18.740Z,6.32
2018-02-19T16:12:46.332Z,7.43
2018-02-19T16:15:13.919Z,6.83
2018-02-19T16:17:41.528Z,7.65
2018-02-19T16:20:10.614Z,7.60
2018-02-19T16:22:38.255Z,7.00
2018-02-19T16:25:05.863Z,6.85
2018-02-19T16:27:35.784Z,7.10
2018-02-19T16:30:04.136Z,6.93
2018-02-19T16:32:31.794Z,7.87
2018-02-19T16:34:59.405Z,7.10
2018-02-19T16:37:27.733Z,7.50
2018-02-19T16:39:55.301Z,6.55
2018-02-19T16:42:22.902Z,7.87
2018-02-19T16:44:50.540Z,8.15
2018-02-19T16:47:18.121Z,7.60
2018-02-19T16:49:45.732Z,7.35
2018-02-19T16:52:13.341Z,8.52
2018-02-19T16:54:41.005Z,8.18
2018-02-19T16:57:08.628Z,7.40
2018-02-19T16:59:36.484Z,9.13
2018-02-19T17:02:04.268Z,7.00
2018-02-19T17:04:32.628Z,8.07
2018-02-19T17:07:00.234Z,8.50
2018-02-19T17:09:27.850Z,8.85
2018-02-19T17:11:55.408Z,8.63
2018-02-19T17:14:23.020Z,7.55
2018-02-19T17:16:50.625Z,9.48
2018-02-19T17:19:18.226Z,9.05
2018-02-19T17:21:45.849Z,8.18
2018-02-19T17:24:13.488Z,9.82
2018-02-19T17:26:41.075Z,7.68
2018-02-19T17:29:08.733Z,9.07
2018-02-19T17:31:36.313Z,8.65
2018-02-19T17:34:03.934Z,9.43
2018-02-19T17:36:32.273Z,10.90
2018-02-19T17:38:59.894Z,8.73
2018-02-19T17:41:28.233Z,10.20
2018-02-19T17:43:55.828Z,9.13
2018-02-19T17:46:24.184Z,9.70
2018-02-19T17:48:52.130Z,9.75
2018-02-19T17:51:19.747Z,9.57
2018-02-19T17:53:48.124Z,9.20
2018-02-19T17:56:15.721Z,11.23
2018-02-19T17:58:43.568Z,11.25
2018-02-19T18:01:11.926Z,10.32
2018-02-19T18:03:39.512Z,11.07
2018-02-19T18:06:07.901Z,10.27
2018-02-19T18:08:36.244Z,9.55
2018-02-19T18:11:03.878Z,9.38
2018-02-19T18:13:31.480Z,12.00
2018-02-19T18:15:59.092Z,10.45
2018-02-19T18:18:27.483Z,9.63
2018-02-19T18:20:55.056Z,11.88
2018-02-19T18:23:23.756Z,10.50
2018-02-19T18:25:51.376Z,11.12
2018-02-19T18:28:19.043Z,10.70
2018-02-19T18:30:46.650Z,11.07
2018-02-19T18:33:14.650Z,10.35
2018-02-19T18:35:42.206Z,10.13
2018-02-19T18:38:09.793Z,10.52
2018-02-19T18:40:37.432Z,10.90
2018-02-19T18:43:05.040Z,10.30
2018-02-19T18:45:32.671Z,10.83
2018-02-19T18:48:00.252Z,11.38
2018-02-19T18:50:27.815Z,10.50
2018-02-19T18:52:55.445Z,12.05
2018-02-19T18:55:23.061Z,12.70
2018-02-19T18:57:51.511Z,11.00
2018-02-19T19:00:19.106Z,10.60
2018-02-19T19:02:46.683Z,11.23
2018-02-19T19:05:14.301Z,11.32
2018-02-19T19:21:10.190Z,11.83
2018-02-19T19:23:37.792Z,11.30
2018-02-19T19:26:05.378Z,10.63
2018-02-19T19:28:33.752Z,11.45
2018-02-19T19:31:01.361Z,12.82
2018-02-19T19:33:28.960Z,10.60
2018-02-19T19:35:56.545Z,13.30
2018-02-19T19:38:24.148Z,11.18
2018-02-19T19:40:52.533Z,11.70
2018-02-19T19:43:20.876Z,10.90
2018-02-19T19:45:48.504Z,11.38
2018-02-19T19:48:16.124Z,12.73
2018-02-19T19:50:43.764Z,12.48
2018-02-19T19:53:11.400Z,10.80
2018-02-19T19:55:38.984Z,11.52
2018-02-19T19:58:06.616Z,11.70
2018-02-19T20:00:34.202Z,10.70
2018-02-19T20:03:02.571Z,11.47
2018-02-19T20:05:30.928Z,11.55
2018-02-19T20:07:58.541Z,12.45
2018-02-19T20:10:26.147Z,12.80
2018-02-19T20:12:53.769Z,11.57
2018-02-19T20:15:22.156Z,11.77
2018-02-19T20:17:49.790Z,12.43
2018-02-19T20:20:17.359Z,10.95
2018-02-19T20:22:45.003Z,11.95
2018-02-19T20:25:12.620Z,11.38
2018-02-19T20:27:41.311Z,12.07
2018-02-19T20:30:09.692Z,11.97
2018-02-19T20:32:37.294Z,14.02
2018-02-19T20:35:04.898Z,11.95
2018-02-19T20:37:33.825Z,12.10
2018-02-19T20:40:01.449Z,10.00
2018-02-19T20:42:29.083Z,12.35
2018-02-19T20:44:56.744Z,11.12
2018-02-19T20:47:25.511Z,14.05
2018-02-19T20:49:53.863Z,13.18
2018-02-19T20:52:21.456Z,12.37
2018-02-19T20:54:49.793Z,11.57
2018-02-19T20:57:17.426Z,12.30
2018-02-19T20:59:45.023Z,13.40
2018-02-19T21:02:12.642Z,11.57
2018-02-19T21:04:40.269Z,14.35
2018-02-19T21:07:07.885Z,11.38
2018-02-19T21:09:35.512Z,11.50
2018-02-19T21:12:03.873Z,10.63
2018-02-19T21:14:31.500Z,11.40
2018-02-19T21:16:59.092Z,12.93
2018-02-19T21:19:26.669Z,13.48
2018-02-19T21:21:54.337Z,10.02
2018-02-19T21:24:21.946Z,10.48
2018-02-19T21:26:50.313Z,11.45
2018-02-19T21:29:18.694Z,13.15
2018-02-19T21:31:47.074Z,9.45
2018-02-19T21:34:14.689Z,11.45
2018-02-19T21:36:43.175Z,13.13
2018-02-19T21:39:11.722Z,11.10
2018-02-19T21:41:39.358Z,11.60
2018-02-19T21:44:06.974Z,12.43
2018-02-19T21:46:34.973Z,11.32
2018-02-19T21:49:02.592Z,11.73
2018-02-19T21:51:30.150Z,11.25
2018-02-19T21:53:58.523Z,10.65
2018-02-19T21:56:26.140Z,11.25
2018-02-19T21:58:53.755Z,11.48
2018-02-19T22:01:21.329Z,11.80
2018-02-19T22:03:48.968Z,12.02
2018-02-19T22:06:16.593Z,11.37
2018-02-19T22:08:44.372Z,13.27
2018-02-19T22:11:11.952Z,11.52
2018-02-19T22:13:39.558Z,11.73
2018-02-19T22:16:07.926Z,11.95
2018-02-19T22:18:35.526Z,12.80
2018-02-19T22:21:03.137Z,11.90
2018-02-19T22:23:30.718Z,12.95
2018-02-19T22:25:58.606Z,13.73
2018-02-19T22:28:26.262Z,11.82
2018-02-19T22:30:53.800Z,11.10
2018-02-19T22:33:21.435Z,12.07
2018-02-19T22:35:49.811Z,12.90
2018-02-19T22:38:18.148Z,12.20
2018-02-19T22:40:46.141Z,12.80
2018-02-19T22:43:13.779Z,12.90
2018-02-19T22:45:41.397Z,13.52
2018-02-19T22:48:09.757Z,12.77
2018-02-19T22:50:37.384Z,11.30
2018-02-19T22:53:04.976Z,12.77
2018-02-19T22:55:32.589Z,12.13
2018-02-19T22:58:00.503Z,11.98
2018-02-19T23:00:28.107Z,12.07
2018-02-19T23:02:56.456Z,13.95
2018-02-19T23:05:24.052Z,11.98
2018-02-19T23:07:51.657Z,13.32
2018-02-19T23:10:19.312Z,11.98
2018-02-19T23:12:46.928Z,12.75
2018-02-19T23:15:14.512Z,11.80
2018-02-19T23:17:42.889Z,13.57
2018-02-19T23:20:10.537Z,12.85
2018-02-19T23:22:38.132Z,14.23
2018-02-19T23:25:06.505Z,15.07
2018-02-19T23:27:34.119Z,13.00
2018-02-19T23:30:01.715Z,15.65
2018-02-19T23:32:29.430Z,14.35
2018-02-19T23:35:02.372Z,14.07
2018-02-19T23:37:26.180Z,13.00
2018-02-19T23:39:53.818Z,14.00
2018-02-19T23:42:21.808Z,15.43
2018-02-19T23:44:49.441Z,13.32
2018-02-19T23:47:17.260Z,14.90
2018-02-19T23:49:45.616Z,13.73
2018-02-19T23:52:13.188Z,14.77
2018-02-19T23:54:40.805Z,17.37
2018-02-19T23:57:08.420Z,13.80
2018-02-19T23:59:36.027Z,14.00
